This is the latest recevied weather packets stored in our database for station/object DC8RAI-12. If no packets are shown the sender has not sent any weather packets the latest 10 day(s).
| Time | Temp. | Humidity | Pressure | Rain* | Wind** | Luminosity | Snow |
|---|---|---|---|---|---|---|---|
| 1777787099 | 11.11° C | 66% | 1016.7 hPa | - | - | - | - |
| 1777786199 | 10° C | 67% | 1016.8 hPa | - | - | - | - |
| 1777785298 | 8.89° C | 71% | 1016.7 hPa | - | - | - | - |
| 1777784399 | 7.78° C | 72% | 1016.8 hPa | - | - | - | - |
| 1777783498 | 7.22° C | 71% | 1016.8 hPa | - | - | - | - |
| 1777782598 | 6.67° C | 71% | 1016.8 hPa | - | - | - | - |
| 1777781698 | 5.56° C | 75% | 1016.8 hPa | - | - | - | - |
| 1777780798 | 6.11° C | 74% | 1016.7 hPa | - | - | - | - |
| 1777779898 | 6.67° C | 72% | 1016.7 hPa | - | - | - | - |
| 1777778998 | 6.67° C | 70% | 1016.7 hPa | - | - | - | - |
| 1777778098 | 6.67° C | 71% | 1016.5 hPa | - | - | - | - |
| 1777777198 | 6.67° C | 70% | 1016.5 hPa | - | - | - | - |
| 1777776298 | 6.11° C | 75% | 1016.6 hPa | - | - | - | - |
| 1777775397 | 6.67° C | 71% | 1016.5 hPa | - | - | - | - |
| 1777774497 | 6.67° C | 72% | 1016.5 hPa | - | - | - | - |
| 1777773597 | 7.78° C | 68% | 1016.6 hPa | - | - | - | - |
| 1777772697 | 7.78° C | 70% | 1016.5 hPa | - | - | - | - |
| 1777771797 | 7.78° C | 69% | 1016.6 hPa | - | - | - | - |
| 1777770897 | 7.78° C | 71% | 1016.6 hPa | - | - | - | - |
| 1777769997 | 7.78° C | 69% | 1016.6 hPa | - | - | - | - |
| 1777769096 | 8.89° C | 65% | 1016.7 hPa | - | - | - | - |
| 1777768196 | 8.33° C | 70% | 1016.9 hPa | - | - | - | - |
| 1777767296 | 8.89° C | 66% | 1017 hPa | - | - | - | - |
| 1777766396 | 9.44° C | 65% | 1017.2 hPa | - | - | - | - |
| 1777765495 | 9.44° C | 66% | 1017.3 hPa | - | - | - | - |
* Rain since midnight (hover to see other rain measurements)
** Current wind speed in m/s (hover to see current wind gust speed)